Time;durP1;ratioP1;P1;durP2;ratioP2;P2;SDS_P1;SDS_P2;PMS_P1;PMS_P2;Temp;Humidity;BMP_temperature;BMP_pressure;BME280_temperature;BME280_humidity;BME280_pressure;Samples;Min_cycle;Max_cycle;Signal;HPM_P1;HPM_P2
2021/09/29 00:02:14;;;;;;;4.28;2.25;;;13.90;97.60;;;;;;5059295;28;20376;-67
2021/09/29 00:04:40;;;;;;;8.60;2.63;;;13.90;97.50;;;;;;5054347;28;20543;-67
2021/09/29 00:07:06;;;;;;;6.10;2.50;;;13.90;97.60;;;;;;5062370;28;20037;-68
2021/09/29 00:09:32;;;;;;;5.40;2.38;;;13.90;97.50;;;;;;5060040;28;20056;-67
2021/09/29 00:11:58;;;;;;;9.02;2.72;;;13.90;97.60;;;;;;5063245;28;20434;-67
2021/09/29 00:14:24;;;;;;;5.53;2.17;;;13.90;97.40;;;;;;5065386;28;20371;-67
2021/09/29 00:16:49;;;;;;;7.10;2.05;;;13.80;97.50;;;;;;5062937;28;20024;-67
2021/09/29 00:19:15;;;;;;;5.60;2.30;;;13.80;97.50;;;;;;5056209;28;21667;-66
2021/09/29 00:21:41;;;;;;;7.20;2.58;;;13.80;97.60;;;;;;5054150;28;20392;-68
2021/09/29 00:24:07;;;;;;;6.88;2.38;;;13.80;97.60;;;;;;5063868;28;20382;-67
2021/09/29 00:26:32;;;;;;;7.20;2.40;;;13.80;97.60;;;;;;5059083;28;20031;-67
2021/09/29 00:28:58;;;;;;;7.72;2.53;;;13.80;97.70;;;;;;5060302;28;20039;-67
2021/09/29 00:31:38;;;;;;;6.63;2.80;;;13.70;97.60;;;;;;5060506;28;20032;-67
2021/09/29 00:34:10;;;;;;;5.50;2.30;;;13.70;97.60;;;;;;5056548;28;20033;-67
2021/09/29 00:36:37;;;;;;;4.45;2.10;;;13.70;97.70;;;;;;5059673;28;20021;-67
2021/09/29 00:39:03;;;;;;;13.00;2.72;;;13.70;97.60;;;;;;5057255;28;20380;-67
2021/09/29 00:41:29;;;;;;;7.32;2.67;;;13.70;97.80;;;;;;5062102;28;20024;-67
2021/09/29 00:43:55;;;;;;;5.72;2.70;;;13.70;97.70;;;;;;5056931;28;20033;-67
2021/09/29 00:46:21;;;;;;;5.78;2.20;;;13.70;97.80;;;;;;5062914;28;20040;-67
2021/09/29 00:48:47;;;;;;;4.70;2.58;;;13.70;97.80;;;;;;5060782;28;20025;-67
2021/09/29 00:51:13;;;;;;;6.40;2.30;;;13.60;97.70;;;;;;5062142;28;20035;-67
2021/09/29 00:53:38;;;;;;;6.20;2.58;;;13.60;97.80;;;;;;5064596;28;20360;-67
2021/09/29 00:56:05;;;;;;;8.10;2.38;;;13.60;97.80;;;;;;5060757;28;20334;-67
2021/09/29 00:58:31;;;;;;;7.95;3.60;;;13.60;97.80;;;;;;5061565;28;20023;-67
2021/09/29 01:00:57;;;;;;;5.60;2.70;;;13.60;97.80;;;;;;5057827;28;20041;-67
2021/09/29 01:03:24;;;;;;;6.20;3.00;;;13.50;97.90;;;;;;5059041;28;20051;-67
2021/09/29 01:05:53;;;;;;;7.75;2.63;;;13.50;97.80;;;;;;5060184;28;20104;-66
2021/09/29 01:08:29;;;;;;;7.78;2.95;;;13.50;97.90;;;;;;5056384;28;20028;-67
2021/09/29 01:11:09;;;;;;;4.38;2.85;;;13.50;97.90;;;;;;5056825;28;20051;-67
2021/09/29 01:13:57;;;;;;;8.00;3.00;;;13.40;98.00;;;;;;5058245;28;20051;-67
2021/09/29 01:16:25;;;;;;;5.55;2.70;;;13.40;98.10;;;;;;5057531;28;20397;-67
2021/09/29 01:18:58;;;;;;;7.63;3.03;;;13.40;98.10;;;;;;5056716;28;20032;-67
2021/09/29 01:21:32;;;;;;;7.50;2.92;;;13.40;98.10;;;;;;5058379;28;20147;-67
2021/09/29 01:24:14;;;;;;;6.30;2.45;;;13.40;98.10;;;;;;5057362;28;20032;-69
2021/09/29 01:26:42;;;;;;;5.57;2.53;;;13.40;98.00;;;;;;5061305;28;20036;-68
2021/09/29 01:29:11;;;;;;;8.52;3.10;;;13.40;98.00;;;;;;5061714;28;20029;-68
2021/09/29 01:31:38;;;;;;;6.35;2.70;;;13.40;98.20;;;;;;5062248;28;20028;-69
2021/09/29 01:34:06;;;;;;;7.63;2.70;;;13.30;98.10;;;;;;5065281;28;20578;-68
2021/09/29 01:36:32;;;;;;;7.25;2.83;;;13.30;98.10;;;;;;5061321;28;20028;-68
2021/09/29 01:38:59;;;;;;;6.95;2.80;;;13.30;98.20;;;;;;5062272;28;20081;-69
2021/09/29 01:41:30;;;;;;;5.97;2.85;;;13.30;98.30;;;;;;5060498;28;20028;-68
2021/09/29 01:43:57;;;;;;;;;;;13.30;98.20;;;;;;5065913;28;20024;-69
2021/09/29 01:46:24;;;;;;;6.55;2.58;;;13.30;98.10;;;;;;5065014;28;19978;-69
2021/09/29 01:49:15;;;;;;;6.90;3.15;;;13.30;98.30;;;;;;5062529;28;20387;-68
2021/09/29 01:51:45;;;;;;;7.43;2.87;;;13.30;98.40;;;;;;5063108;28;20040;-69
2021/09/29 01:54:14;;;;;;;4.47;2.88;;;13.20;98.40;;;;;;5061897;28;20293;-68
2021/09/29 01:56:40;;;;;;;7.68;3.00;;;13.20;98.40;;;;;;5057944;28;20114;-69
2021/09/29 01:59:06;;;;;;;5.68;2.97;;;13.20;98.40;;;;;;5061753;28;20036;-69
2021/09/29 02:01:40;;;;;;;5.60;3.35;;;13.30;98.40;;;;;;5066707;28;20032;-69
2021/09/29 02:04:09;;;;;;;7.63;3.13;;;13.30;98.40;;;;;;5065224;28;20060;-68
2021/09/29 02:06:51;;;;;;;5.57;3.10;;;13.30;98.30;;;;;;5060404;28;20104;-68
2021/09/29 02:09:18;;;;;;;6.45;3.08;;;13.20;98.20;;;;;;5061854;28;20478;-69
2021/09/29 02:11:45;;;;;;;6.10;2.78;;;13.20;98.30;;;;;;5062164;28;20071;-69
2021/09/29 02:14:12;;;;;;;5.82;3.42;;;13.20;98.30;;;;;;5061141;28;20033;-68
2021/09/29 02:16:38;;;;;;;5.80;3.30;;;13.20;98.30;;;;;;5058523;28;20375;-69
2021/09/29 02:19:04;;;;;;;5.40;2.67;;;13.20;98.40;;;;;;5065424;28;20105;-69
2021/09/29 02:21:30;;;;;;;10.73;3.40;;;13.20;98.50;;;;;;5066551;28;20056;-68
2021/09/29 02:23:56;;;;;;;6.55;3.67;;;13.20;98.40;;;;;;5063134;28;20026;-69
2021/09/29 02:26:22;;;;;;;7.18;3.03;;;13.20;98.40;;;;;;5065851;28;20033;-68
2021/09/29 02:28:48;;;;;;;8.32;2.63;;;13.20;98.50;;;;;;5064355;28;20055;-68
2021/09/29 02:31:13;;;;;;;6.53;2.95;;;13.20;98.50;;;;;;5057325;28;20039;-69
2021/09/29 02:33:39;;;;;;;7.22;3.42;;;13.20;98.60;;;;;;5060252;28;20024;-68
2021/09/29 02:36:05;;;;;;;6.70;2.75;;;13.20;98.70;;;;;;5061076;28;20024;-69
2021/09/29 02:38:30;;;;;;;7.05;3.28;;;13.10;98.70;;;;;;5063017;28;20027;-68
2021/09/29 02:40:56;;;;;;;6.18;3.00;;;13.10;98.70;;;;;;5060851;28;20380;-69
2021/09/29 02:43:22;;;;;;;7.72;3.05;;;13.10;98.70;;;;;;5062866;28;20036;-69
2021/09/29 02:45:48;;;;;;;6.72;2.60;;;13.10;98.80;;;;;;5058317;28;20037;-68
2021/09/29 02:48:13;;;;;;;8.70;3.22;;;13.10;98.70;;;;;;5062611;28;20036;-69
2021/09/29 02:50:40;;;;;;;7.00;3.33;;;13.10;98.80;;;;;;5061630;28;20032;-69
2021/09/29 02:53:06;;;;;;;6.95;3.10;;;13.10;98.70;;;;;;5064209;28;20033;-67
2021/09/29 02:55:32;;;;;;;6.38;3.33;;;13.10;98.70;;;;;;5060931;28;20035;-69
2021/09/29 02:57:57;;;;;;;8.02;3.63;;;13.10;98.70;;;;;;5060832;28;20032;-68
2021/09/29 03:00:23;;;;;;;6.47;3.13;;;13.10;98.70;;;;;;5062963;28;20447;-69
2021/09/29 03:02:49;;;;;;;7.50;3.40;;;13.10;98.70;;;;;;5062368;28;20110;-68
2021/09/29 03:05:14;;;;;;;9.02;3.58;;;13.10;98.70;;;;;;5060131;28;20509;-68
2021/09/29 03:07:40;;;;;;;8.77;3.83;;;13.10;98.60;;;;;;5061284;28;20160;-69
2021/09/29 03:10:06;;;;;;;5.22;3.10;;;13.10;98.70;;;;;;5064653;28;20056;-68
2021/09/29 03:12:32;;;;;;;5.63;3.38;;;13.00;98.80;;;;;;5064881;28;20036;-69
2021/09/29 03:14:57;;;;;;;6.32;3.70;;;13.00;98.90;;;;;;5060509;28;20078;-68
2021/09/29 03:17:23;;;;;;;5.80;3.50;;;13.00;98.90;;;;;;5059207;28;20028;-69
2021/09/29 03:19:49;;;;;;;9.95;3.38;;;13.00;99.00;;;;;;5062695;28;20107;-68
2021/09/29 03:22:15;;;;;;;10.73;3.88;;;13.00;99.00;;;;;;5062976;28;20104;-68
2021/09/29 03:24:41;;;;;;;6.72;3.58;;;13.00;98.90;;;;;;5061338;28;20040;-68
2021/09/29 03:27:08;;;;;;;7.38;3.63;;;13.00;98.90;;;;;;5062923;28;20024;-68
2021/09/29 03:29:34;;;;;;;6.43;3.55;;;13.00;98.80;;;;;;5060704;28;20115;-69
2021/09/29 03:32:00;;;;;;;8.15;3.45;;;13.10;98.80;;;;;;5064019;28;20104;-69
2021/09/29 03:34:25;;;;;;;10.32;3.80;;;13.00;98.90;;;;;;5059197;28;20043;-68
2021/09/29 03:36:51;;;;;;;7.20;3.65;;;13.00;98.80;;;;;;5060513;28;20542;-69
2021/09/29 03:39:17;;;;;;;6.50;3.90;;;13.00;98.80;;;;;;5063841;28;20085;-69
2021/09/29 03:41:42;;;;;;;9.63;3.92;;;13.00;98.90;;;;;;5058994;28;20110;-69
2021/09/29 03:44:08;;;;;;;6.28;3.42;;;13.00;98.80;;;;;;5065791;28;20025;-69
2021/09/29 03:46:34;;;;;;;11.38;3.63;;;13.10;98.80;;;;;;5060971;28;20060;-69
2021/09/29 03:49:00;;;;;;;8.57;3.78;;;13.10;98.80;;;;;;5065737;28;20467;-68
2021/09/29 03:51:25;;;;;;;8.65;3.05;;;13.10;98.80;;;;;;5063464;28;20044;-69
2021/09/29 03:53:51;;;;;;;6.13;3.70;;;13.10;98.80;;;;;;5061227;28;20398;-68
2021/09/29 03:56:17;;;;;;;7.65;3.20;;;13.10;98.80;;;;;;5064042;28;20035;-69
2021/09/29 03:58:42;;;;;;;8.30;4.20;;;13.10;98.80;;;;;;5059553;28;20032;-69
2021/09/29 04:01:08;;;;;;;8.48;3.58;;;13.10;98.80;;;;;;5056479;28;20041;-68
2021/09/29 04:03:34;;;;;;;8.48;3.40;;;13.10;98.80;;;;;;5054845;28;20087;-68
2021/09/29 04:05:59;;;;;;;9.75;3.13;;;13.10;98.80;;;;;;5060648;28;20051;-69
2021/09/29 04:08:25;;;;;;;6.93;3.40;;;13.10;98.80;;;;;;5064287;28;20029;-69
2021/09/29 04:10:53;;;;;;;7.90;3.75;;;13.10;98.90;;;;;;5057975;28;20137;-69
2021/09/29 04:13:19;;;;;;;9.45;3.25;;;13.10;98.80;;;;;;5061945;28;20029;-68
2021/09/29 04:15:44;;;;;;;6.45;3.15;;;13.10;98.90;;;;;;5062680;28;20432;-68
2021/09/29 04:18:10;;;;;;;10.85;3.63;;;13.10;99.00;;;;;;5060625;28;20095;-69
2021/09/29 04:20:36;;;;;;;11.02;3.60;;;13.10;99.00;;;;;;5056594;28;20471;-69
2021/09/29 04:23:02;;;;;;;7.15;3.30;;;13.10;98.90;;;;;;5061244;28;20453;-69
2021/09/29 04:25:27;;;;;;;6.18;3.22;;;13.10;98.90;;;;;;5056092;28;20041;-69
2021/09/29 04:27:53;;;;;;;8.55;3.58;;;13.10;98.80;;;;;;5054420;28;20029;-69
2021/09/29 04:30:19;;;;;;;7.30;3.67;;;13.10;98.90;;;;;;5055449;28;20040;-67
2021/09/29 04:32:45;;;;;;;9.10;3.38;;;13.00;98.90;;;;;;5060341;28;20020;-68
2021/09/29 04:35:11;;;;;;;7.38;3.20;;;13.00;99.00;;;;;;5060463;28;20399;-68
2021/09/29 04:37:38;;;;;;;8.90;3.08;;;13.00;99.10;;;;;;5063710;28;20033;-69
2021/09/29 04:40:05;;;;;;;9.35;3.50;;;13.00;99.20;;;;;;5057501;28;20114;-68
2021/09/29 04:42:31;;;;;;;5.88;3.33;;;13.00;99.10;;;;;;5060342;28;20029;-69
2021/09/29 04:44:57;;;;;;;8.93;3.85;;;13.00;99.10;;;;;;5055818;28;20074;-69
2021/09/29 04:47:24;;;;;;;10.32;4.00;;;13.00;99.10;;;;;;5061330;28;20076;-69
2021/09/29 04:49:49;;;;;;;7.82;3.95;;;13.00;99.00;;;;;;5059656;28;20104;-71
2021/09/29 04:52:15;;;;;;;8.38;3.72;;;13.00;99.10;;;;;;5061089;28;20079;-71
2021/09/29 04:54:41;;;;;;;9.88;4.22;;;13.00;99.10;;;;;;5062309;28;20157;-71
2021/09/29 04:57:08;;;;;;;9.13;4.22;;;12.90;99.20;;;;;;5058776;28;20036;-71
2021/09/29 04:59:35;;;;;;;9.32;4.13;;;13.00;99.30;;;;;;5066063;28;20025;-73
2021/09/29 05:02:07;;;;;;;8.80;5.03;;;13.00;99.20;;;;;;5055887;28;20025;-68
2021/09/29 05:04:32;;;;;;;12.40;4.85;;;13.00;99.20;;;;;;5063301;28;20035;-70
2021/09/29 05:06:59;;;;;;;7.70;4.18;;;13.00;99.10;;;;;;5060527;28;20024;-69
2021/09/29 05:09:25;;;;;;;7.32;4.10;;;13.00;99.20;;;;;;5060924;28;20016;-70
2021/09/29 05:12:02;;;;;;;8.13;4.20;;;13.00;99.20;;;;;;5062772;28;20090;-68
2021/09/29 05:14:28;;;;;;;9.55;3.95;;;13.00;99.20;;;;;;5061758;28;20025;-68
2021/09/29 05:16:54;;;;;;;8.18;4.00;;;13.00;99.20;;;;;;5058940;28;20512;-69
2021/09/29 05:19:19;;;;;;;7.90;4.60;;;13.00;99.20;;;;;;5064630;28;20025;-69
2021/09/29 05:21:45;;;;;;;7.78;3.75;;;13.00;99.30;;;;;;5065039;28;20056;-70
2021/09/29 05:24:11;;;;;;;8.65;3.92;;;13.00;99.30;;;;;;5066421;28;20029;-69
2021/09/29 05:26:36;;;;;;;7.47;4.13;;;13.00;99.20;;;;;;5064328;28;20394;-68
2021/09/29 05:29:04;;;;;;;8.82;4.13;;;13.00;99.10;;;;;;5066012;28;20047;-69
2021/09/29 05:31:30;;;;;;;9.57;4.43;;;13.00;99.20;;;;;;5062064;28;20033;-66
2021/09/29 05:33:56;;;;;;;10.25;4.40;;;13.00;99.20;;;;;;5065639;28;20027;-68
2021/09/29 05:36:21;;;;;;;6.15;3.72;;;12.90;99.20;;;;;;5061195;28;20031;-70
2021/09/29 05:38:47;;;;;;;11.50;5.03;;;12.90;99.20;;;;;;5056323;28;20017;-68
2021/09/29 05:41:14;;;;;;;11.57;4.05;;;12.90;99.20;;;;;;5059784;28;20566;-69
2021/09/29 05:43:39;;;;;;;10.48;4.68;;;12.90;99.30;;;;;;5063357;28;20090;-68
2021/09/29 05:46:05;;;;;;;9.57;4.43;;;12.90;99.30;;;;;;5064766;28;20040;-70
2021/09/29 05:48:31;;;;;;;13.82;6.05;;;12.90;99.30;;;;;;5063390;28;20036;-70
2021/09/29 05:50:57;;;;;;;10.05;4.38;;;12.90;99.30;;;;;;5067630;28;20074;-68
2021/09/29 05:53:23;;;;;;;9.43;4.50;;;12.90;99.30;;;;;;5066529;28;20029;-68
2021/09/29 05:55:49;;;;;;;13.75;4.70;;;12.90;99.40;;;;;;5066604;28;20016;-67
2021/09/29 05:58:15;;;;;;;10.57;4.40;;;12.90;99.50;;;;;;5064024;28;20025;-71
2021/09/29 06:00:40;;;;;;;9.35;4.25;;;12.90;99.60;;;;;;5058070;28;20072;-68
2021/09/29 06:03:06;;;;;;;9.13;4.20;;;12.90;99.60;;;;;;5066638;28;20114;-68
2021/09/29 06:05:32;;;;;;;11.93;4.25;;;12.90;99.80;;;;;;5060401;28;20032;-69
2021/09/29 06:07:57;;;;;;;9.32;4.25;;;12.90;99.50;;;;;;5061690;28;20033;-68
2021/09/29 06:10:23;;;;;;;9.02;3.97;;;12.90;99.50;;;;;;5065924;28;20063;-68
2021/09/29 06:12:49;;;;;;;12.18;4.57;;;12.90;99.50;;;;;;5066687;28;20099;-69
2021/09/29 06:15:28;;;;;;;11.82;4.05;;;12.90;99.50;;;;;;5063058;28;20044;-66
2021/09/29 06:17:58;;;;;;;8.32;4.35;;;13.00;99.60;;;;;;5067178;28;20017;-67
2021/09/29 06:20:24;;;;;;;9.48;4.40;;;13.00;99.50;;;;;;5065066;28;20033;-67
2021/09/29 06:22:50;;;;;;;8.35;4.50;;;13.00;99.50;;;;;;5061947;28;20025;-69
2021/09/29 06:25:16;;;;;;;10.27;4.47;;;13.00;99.40;;;;;;5067234;28;20384;-68
2021/09/29 06:27:43;;;;;;;10.55;5.10;;;13.10;99.80;;;;;;5062663;28;20505;-69
2021/09/29 06:30:10;;;;;;;11.15;4.72;;;13.20;99.50;;;;;;5068335;28;20471;-69
2021/09/29 06:32:36;;;;;;;8.68;4.50;;;13.20;99.40;;;;;;5065275;28;20032;-68
2021/09/29 06:35:02;;;;;;;6.60;4.15;;;13.20;99.30;;;;;;5064912;28;20021;-68
2021/09/29 06:37:28;;;;;;;12.57;4.53;;;13.20;99.30;;;;;;5066374;28;20055;-68
2021/09/29 06:39:53;;;;;;;12.23;4.45;;;13.30;99.30;;;;;;5068533;28;20048;-69
2021/09/29 06:42:19;;;;;;;11.15;4.72;;;13.30;99.20;;;;;;5071333;28;20046;-70
2021/09/29 06:44:45;;;;;;;7.40;3.80;;;13.40;99.10;;;;;;5069121;28;20025;-68
2021/09/29 06:47:10;;;;;;;12.07;4.30;;;13.40;99.00;;;;;;5070160;28;20032;-69
2021/09/29 06:49:37;;;;;;;7.30;4.20;;;13.50;98.90;;;;;;5068543;28;20030;-69
2021/09/29 06:52:03;;;;;;;9.10;3.63;;;13.50;98.90;;;;;;5064058;28;20669;-68
2021/09/29 06:54:29;;;;;;;10.80;4.57;;;13.60;98.90;;;;;;5065620;28;20021;-68
2021/09/29 06:56:54;;;;;;;14.45;4.15;;;13.60;98.90;;;;;;5063306;28;20029;-69
2021/09/29 06:59:20;;;;;;;7.25;3.95;;;13.60;98.80;;;;;;5069770;28;20024;-69
2021/09/29 07:01:47;;;;;;;5.30;3.70;;;13.60;98.80;;;;;;5061959;28;20041;-68
2021/09/29 07:04:13;;;;;;;7.05;3.85;;;13.70;98.80;;;;;;5071999;28;20031;-69
2021/09/29 07:06:38;;;;;;;8.55;4.13;;;13.70;98.70;;;;;;5073035;28;20056;-69
2021/09/29 07:09:04;;;;;;;11.80;4.43;;;13.70;98.70;;;;;;5072622;28;20028;-69
2021/09/29 07:11:30;;;;;;;17.63;4.97;;;13.70;98.60;;;;;;5071239;28;20371;-69
2021/09/29 07:13:57;;;;;;;8.80;4.35;;;13.70;98.50;;;;;;5069278;28;20637;-70
2021/09/29 07:16:25;;;;;;;11.80;4.57;;;13.70;98.60;;;;;;5065580;28;21688;-71
2021/09/29 07:18:51;;;;;;;11.07;4.40;;;13.80;98.60;;;;;;5062580;28;20025;-68
2021/09/29 07:21:16;;;;;;;10.88;4.97;;;13.80;98.80;;;;;;5066947;28;20040;-69
2021/09/29 07:23:42;;;;;;;8.10;4.93;;;13.90;98.70;;;;;;5070520;28;20032;-70
2021/09/29 07:26:08;;;;;;;7.38;4.35;;;13.90;98.50;;;;;;5071308;28;20032;-68
2021/09/29 07:28:34;;;;;;;9.85;5.18;;;14.00;98.60;;;;;;5071256;28;20021;-70
2021/09/29 07:30:59;;;;;;;9.27;5.10;;;14.00;98.50;;;;;;5068856;28;20020;-69
2021/09/29 07:33:25;;;;;;;12.95;5.05;;;14.00;98.40;;;;;;5070700;28;20581;-69
2021/09/29 07:35:51;;;;;;;8.43;4.90;;;14.00;98.40;;;;;;5060786;28;20027;-69
2021/09/29 07:38:17;;;;;;;9.93;5.43;;;14.10;98.40;;;;;;5071781;28;20099;-70
2021/09/29 07:40:43;;;;;;;11.95;5.00;;;14.10;98.40;;;;;;5069509;28;20151;-72
2021/09/29 07:43:09;;;;;;;11.10;4.65;;;14.20;98.30;;;;;;5066932;28;20466;-67
2021/09/29 07:45:34;;;;;;;8.60;5.13;;;14.20;98.20;;;;;;5069871;28;20082;-68
2021/09/29 07:48:00;;;;;;;11.77;5.93;;;14.30;98.10;;;;;;5064981;28;20028;-69
2021/09/29 07:50:26;;;;;;;8.80;5.38;;;14.30;98.10;;;;;;5065287;28;20032;-69
2021/09/29 07:52:52;;;;;;;12.52;5.85;;;14.30;98.00;;;;;;5064718;28;20033;-70
2021/09/29 07:55:18;;;;;;;9.80;5.40;;;14.40;98.00;;;;;;5071083;28;20418;-68
2021/09/29 07:57:45;;;;;;;14.10;6.22;;;14.40;98.00;;;;;;5056914;28;20025;-68
2021/09/29 08:00:13;;;;;;;10.65;5.68;;;14.30;97.80;;;;;;5061903;28;20038;-70
2021/09/29 08:02:40;;;;;;;10.27;6.18;;;14.30;97.90;;;;;;5056985;28;20383;-67
2021/09/29 08:05:06;;;;;;;6.85;5.10;;;14.30;97.90;;;;;;5065182;28;20025;-69
2021/09/29 08:07:32;;;;;;;11.68;4.85;;;14.30;98.00;;;;;;5071725;28;20066;-68
2021/09/29 08:09:58;;;;;;;12.43;5.72;;;14.40;98.00;;;;;;5067457;28;20033;-69
2021/09/29 08:12:23;;;;;;;10.20;5.18;;;14.40;98.00;;;;;;5065444;28;20052;-68
2021/09/29 08:14:49;;;;;;;11.90;6.88;;;14.40;98.00;;;;;;5069528;28;20017;-71
2021/09/29 08:17:15;;;;;;;10.65;5.35;;;14.50;97.90;;;;;;5061415;28;20039;-68
2021/09/29 08:19:41;;;;;;;11.27;5.13;;;14.50;97.90;;;;;;5065801;28;20017;-69
2021/09/29 08:22:08;;;;;;;8.40;5.25;;;14.50;98.00;;;;;;5071118;28;20029;-69
2021/09/29 08:30:13;;;;;;;13.85;5.90;;;14.40;97.90;;;;;;5061547;28;20526;-69
2021/09/29 08:32:46;;;;;;;9.82;5.22;;;14.50;97.90;;;;;;5065180;28;20024;-69
2021/09/29 08:35:33;;;;;;;11.77;5.03;;;14.50;97.90;;;;;;5067558;28;20031;-69
2021/09/29 08:38:15;;;;;;;7.70;4.70;;;14.60;97.70;;;;;;5069297;28;20471;-69
2021/09/29 08:41:07;;;;;;;12.65;5.25;;;14.70;97.60;;;;;;5062971;28;20427;-70
2021/09/29 08:43:44;;;;;;;11.00;5.88;;;14.80;97.50;;;;;;5063447;28;20435;-72
2021/09/29 08:46:43;;;;;;;12.05;5.85;;;14.80;97.40;;;;;;5059898;28;20040;-69
2021/09/29 09:16:33;;;;;;;10.68;5.78;;;14.90;97.10;;;;;;5061791;28;20029;-69
2021/09/29 09:19:05;;;;;;;14.02;5.40;;;14.90;97.40;;;;;;5067018;28;20039;-68
2021/09/29 09:21:42;;;;;;;12.23;6.30;;;14.80;97.50;;;;;;5070617;28;20033;-70
2021/09/29 09:24:23;;;;;;;11.25;4.90;;;14.80;97.80;;;;;;5067367;28;20145;-68
2021/09/29 09:27:03;;;;;;;8.30;5.45;;;14.90;97.70;;;;;;5061100;28;20029;-70
2021/09/29 09:29:29;;;;;;;9.10;6.13;;;14.90;97.90;;;;;;5060257;28;20032;-69
2021/09/29 09:32:13;;;;;;;10.75;6.03;;;14.90;97.80;;;;;;5060368;28;20095;-69
2021/09/29 09:34:39;;;;;;;10.98;5.45;;;15.00;97.80;;;;;;5065816;28;20063;-67
2021/09/29 09:37:10;;;;;;;11.07;6.20;;;15.00;97.80;;;;;;5067188;28;20036;-69
2021/09/29 09:39:37;;;;;;;13.43;6.15;;;15.10;97.70;;;;;;5066853;28;20177;-68
2021/09/29 09:42:03;;;;;;;12.55;5.47;;;15.20;97.80;;;;;;5067682;28;20041;-67
2021/09/29 09:44:32;;;;;;;17.67;6.40;;;15.30;97.60;;;;;;5067049;28;20052;-67
2021/09/29 09:47:13;;;;;;;16.25;6.35;;;15.40;97.30;;;;;;5069776;28;20479;-65
2021/09/29 09:49:45;;;;;;;;;;;15.40;97.30;;;;;;5066873;28;20028;-69
2021/09/29 09:52:11;;;;;;;13.40;6.20;;;15.40;97.40;;;;;;5066617;28;19912;-69
2021/09/29 09:54:42;;;;;;;11.63;6.22;;;15.50;97.40;;;;;;5070055;28;20021;-69
2021/09/29 09:57:21;;;;;;;12.83;6.93;;;15.60;97.30;;;;;;5070914;28;20025;-69
2021/09/29 09:59:48;;;;;;;10.00;6.18;;;15.70;97.10;;;;;;5073634;28;20278;-68
2021/09/29 10:02:14;;;;;;;11.88;5.75;;;15.80;96.90;;;;;;5069612;28;20029;-69
2021/09/29 10:04:40;;;;;;;15.40;6.93;;;15.90;96.90;;;;;;5067361;28;20078;-69
2021/09/29 10:07:07;;;;;;;9.85;6.15;;;16.00;96.60;;;;;;5071128;28;20020;-71
2021/09/29 10:09:47;;;;;;;13.68;5.88;;;16.00;96.40;;;;;;5068118;28;20047;-69
2021/09/29 10:12:45;;;;;;;16.40;5.97;;;16.10;96.40;;;;;;5069922;28;20075;-68
2021/09/29 10:26:48;;;;;;;10.50;5.60;;;16.40;95.90;;;;;;5048151;28;20037;-70
2021/09/29 10:29:14;;;;;;;13.30;5.03;;;16.50;95.70;;;;;;5068706;28;20032;-69
2021/09/29 10:31:53;;;;;;;9.82;4.97;;;16.70;95.50;;;;;;5068641;28;20117;-70
2021/09/29 10:34:39;;;;;;;9.80;5.30;;;16.80;95.30;;;;;;5073794;28;20028;-69
2021/09/29 10:48:01;;;;;;;6.10;4.13;;;17.30;94.10;;;;;;5072170;28;20061;-72
2021/09/29 11:09:55;;;;;;;5.93;3.50;;;22.70;78.10;;;;;;5064819;28;20039;-73
2021/09/29 11:29:22;;;;;;;4.93;3.30;;;25.10;63.10;;;;;;5066233;28;20035;-69
2021/09/29 11:31:52;;;;;;;15.30;4.10;;;23.70;67.00;;;;;;5068715;28;20028;-68
2021/09/29 11:34:27;;;;;;;7.90;3.23;;;22.20;71.40;;;;;;5068141;28;20063;-69
2021/09/29 11:37:11;;;;;;;5.13;2.70;;;21.60;74.50;;;;;;5068272;28;20024;-68
2021/09/29 12:10:17;;;;;;;8.75;3.42;;;20.70;82.30;;;;;;5063764;28;20032;-67
2021/09/29 12:12:38;;;;;;;4.85;2.75;;;20.10;82.40;;;;;;5065351;28;20399;-67
2021/09/29 12:15:06;;;;;;;6.45;3.33;;;19.70;84.20;;;;;;5065128;28;20048;-68
2021/09/29 12:17:35;;;;;;;7.30;3.30;;;19.50;84.50;;;;;;5069905;28;20034;-66
2021/09/29 12:20:11;;;;;;;15.18;3.97;;;19.50;85.50;;;;;;5064013;28;20016;-68
2021/09/29 12:22:53;;;;;;;8.30;3.08;;;19.50;86.10;;;;;;5065875;28;20036;-66
2021/09/29 12:25:44;;;;;;;6.78;3.03;;;19.40;86.50;;;;;;5064852;28;20234;-67
2021/09/29 12:30:49;;;;;;;5.45;2.80;;;19.00;87.40;;;;;;5064649;28;20454;-67
2021/09/29 12:35:46;;;;;;;7.05;2.70;;;19.00;87.10;;;;;;5063402;28;20410;-68
2021/09/29 12:38:12;;;;;;;6.32;2.90;;;18.90;87.60;;;;;;5064612;28;20398;-68
2021/09/29 12:40:42;;;;;;;7.00;3.00;;;18.90;87.90;;;;;;5068256;28;20431;-69
2021/09/29 12:43:17;;;;;;;6.95;3.08;;;18.70;88.30;;;;;;5064941;28;20033;-68
2021/09/29 12:45:47;;;;;;;6.25;2.97;;;18.60;88.50;;;;;;5065468;28;20059;-66
2021/09/29 12:48:15;;;;;;;7.65;3.33;;;18.50;88.60;;;;;;5067981;28;20097;-68
2021/09/29 12:50:49;;;;;;;4.80;2.72;;;18.60;89.30;;;;;;5067335;28;20024;-68
2021/09/29 12:54:04;;;;;;;6.00;3.05;;;18.50;89.10;;;;;;5067925;28;20112;-67
2021/09/29 12:56:12;;;;;;;8.48;3.45;;;18.50;89.30;;;;;;5067816;28;20072;-67
2021/09/29 12:58:38;;;;;;;6.72;2.85;;;18.50;89.40;;;;;;5065681;28;20032;-66
2021/09/29 13:01:04;;;;;;;6.82;2.72;;;18.50;90.00;;;;;;5065511;28;20039;-67
2021/09/29 13:03:30;;;;;;;7.10;2.90;;;18.60;89.50;;;;;;5066959;28;20119;-68
2021/09/29 13:05:58;;;;;;;7.38;3.38;;;18.60;89.80;;;;;;5065331;28;20148;-67
2021/09/29 13:08:24;;;;;;;8.70;3.10;;;18.50;90.00;;;;;;5064436;28;20747;-70
2021/09/29 13:10:50;;;;;;;4.82;2.60;;;18.40;90.00;;;;;;5066218;28;20033;-69
2021/09/29 13:13:17;;;;;;;8.35;3.78;;;18.20;90.20;;;;;;5067154;28;20119;-67
2021/09/29 13:15:45;;;;;;;8.52;3.97;;;18.10;90.50;;;;;;5064830;28;20244;-68
2021/09/29 13:18:18;;;;;;;6.68;2.88;;;17.90;90.60;;;;;;5066812;28;20028;-68
2021/09/29 13:20:47;;;;;;;6.20;2.42;;;17.80;90.80;;;;;;5066242;28;20042;-66
2021/09/29 13:23:25;;;;;;;5.13;2.92;;;17.70;91.00;;;;;;5070051;28;20040;-65
2021/09/29 13:26:03;;;;;;;4.80;2.83;;;17.70;91.30;;;;;;5071389;28;20040;-65
2021/09/29 13:36:43;;;;;;;9.98;3.10;;;16.90;95.80;;;;;;5071092;28;20025;-67
2021/09/29 13:39:19;;;;;;;6.90;2.78;;;16.50;98.70;;;;;;5067991;28;20044;-67
2021/09/29 13:41:47;;;;;;;10.15;3.30;;;16.10;99.90;;;;;;5066418;28;20569;-67
2021/09/29 13:44:14;;;;;;;9.05;2.67;;;15.80;99.90;;;;;;5067967;28;20047;-69
2021/09/29 13:46:40;;;;;;;6.05;2.90;;;15.60;99.90;;;;;;5067582;28;20028;-67
2021/09/29 13:49:08;;;;;;;7.28;2.92;;;15.60;99.90;;;;;;5069188;28;20407;-67
2021/09/29 13:51:34;;;;;;;6.85;2.80;;;15.50;99.90;;;;;;5085510;28;20506;-67
2021/09/29 13:54:08;;;;;;;7.82;2.53;;;15.50;99.90;;;;;;5065956;28;20024;-67
2021/09/29 13:56:52;;;;;;;8.90;2.75;;;15.40;99.90;;;;;;5071007;28;20028;-69
2021/09/29 14:34:12;;;;;;;3.65;1.75;;;14.80;99.90;;;;;;5067329;28;20391;-68
2021/09/29 14:36:37;;;;;;;7.68;1.80;;;14.90;99.90;;;;;;5070264;28;20036;-68
2021/09/29 14:39:04;;;;;;;3.47;1.50;;;14.90;99.90;;;;;;5069005;28;20098;-68
2021/09/29 14:41:30;;;;;;;2.90;1.63;;;15.00;99.90;;;;;;5070291;28;20028;-68
2021/09/29 14:43:56;;;;;;;5.65;1.70;;;15.10;99.90;;;;;;5069400;28;20104;-68
2021/09/29 14:46:22;;;;;;;8.65;2.60;;;15.10;99.90;;;;;;5072684;28;20116;-68
2021/09/29 14:48:48;;;;;;;6.07;1.92;;;15.10;99.90;;;;;;5070306;28;20611;-68
2021/09/29 14:51:13;;;;;;;5.72;1.85;;;15.10;99.90;;;;;;5069539;28;20420;-68
2021/09/29 14:53:40;;;;;;;4.97;2.10;;;15.00;99.90;;;;;;5070480;28;20107;-67
2021/09/29 14:56:08;;;;;;;3.53;1.92;;;15.00;99.90;;;;;;5068970;28;20111;-67
2021/09/29 14:58:35;;;;;;;4.25;2.13;;;15.00;99.90;;;;;;5067106;28;20143;-67
2021/09/29 15:01:02;;;;;;;6.22;1.90;;;15.00;99.90;;;;;;5065093;28;20040;-68
2021/09/29 15:03:27;;;;;;;3.65;1.85;;;15.00;99.90;;;;;;5069881;28;20497;-68
2021/09/29 15:05:54;;;;;;;4.35;2.08;;;15.00;99.90;;;;;;5069431;28;20029;-68
2021/09/29 15:08:20;;;;;;;6.97;2.42;;;14.90;99.90;;;;;;5069945;28;20032;-68
2021/09/29 15:10:46;;;;;;;5.97;1.90;;;15.00;99.90;;;;;;5066292;28;20159;-68
2021/09/29 15:13:14;;;;;;;3.78;1.83;;;15.00;99.90;;;;;;5069377;28;20107;-68
2021/09/29 15:15:53;;;;;;;8.13;2.03;;;15.00;99.90;;;;;;5069133;28;20328;-68
2021/09/29 15:18:24;;;;;;;6.65;2.10;;;15.10;99.00;;;;;;5070014;28;20020;-68
2021/09/29 15:21:10;;;;;;;7.95;1.80;;;15.10;96.70;;;;;;5069477;28;20066;-69
2021/09/29 15:31:24;;;;;;;6.03;2.17;;;14.70;99.90;;;;;;5067605;28;20063;-68
2021/09/29 15:48:01;;;;;;;2.33;0.70;;;13.50;99.90;;;;;;5066032;28;20041;-68
2021/09/29 15:58:23;;;;;;;1.00;0.77;;;13.30;99.90;;;;;;5067715;28;20025;-68
2021/09/29 16:03:46;;;;;;;2.20;1.30;;;13.30;99.90;;;;;;5064354;28;20502;-67
2021/09/29 16:06:22;;;;;;;5.15;1.23;;;13.20;99.90;;;;;;5063942;28;20419;-68
2021/09/29 16:09:14;;;;;;;2.65;1.40;;;13.10;99.90;;;;;;5065650;28;20029;-67
2021/09/29 16:14:42;;;;;;;2.85;1.30;;;13.10;99.90;;;;;;5054140;28;20037;-67
2021/09/29 16:30:55;;;;;;;4.35;2.00;;;13.00;99.90;;;;;;5068219;28;20028;-68
2021/09/29 16:33:44;;;;;;;2.92;2.10;;;13.00;99.90;;;;;;5068791;28;20043;-68